createdAt,value
2019-03-24T00:00:08.034Z,73.81
2019-03-24T00:01:08.023Z,73.61
2019-03-24T00:02:08.007Z,73.81
2019-03-24T00:03:08.002Z,74.11
2019-03-24T00:04:08.009Z,73.81
2019-03-24T00:05:07.976Z,73.81
2019-03-24T00:06:07.967Z,73.81
2019-03-24T00:07:07.954Z,73.91
2019-03-24T00:08:07.943Z,73.91
2019-03-24T00:09:07.933Z,73.81
2019-03-24T00:10:07.933Z,73.81
2019-03-24T00:11:07.916Z,73.71
2019-03-24T00:12:07.903Z,74.02
2019-03-24T00:13:07.895Z,73.71
2019-03-24T00:14:07.880Z,74.02
2019-03-24T00:15:07.919Z,73.91
2019-03-24T00:16:07.864Z,74.02
2019-03-24T00:17:07.852Z,73.91
2019-03-24T00:18:07.843Z,73.81
2019-03-24T00:19:07.830Z,73.85
2019-03-24T00:20:10.134Z,73.85
2019-03-24T00:21:07.814Z,73.85
2019-03-24T00:22:07.805Z,74.02
2019-03-24T00:23:07.786Z,73.85
2019-03-24T00:24:07.776Z,73.94
2019-03-24T00:25:07.772Z,74.05
2019-03-24T00:26:07.762Z,73.85
2019-03-24T00:27:07.744Z,73.74
2019-03-24T00:28:07.736Z,74.05
2019-03-24T00:29:07.722Z,74.66
2019-03-24T00:30:07.715Z,74.15
2019-03-24T00:31:07.710Z,74.46
2019-03-24T00:32:07.689Z,74.05
2019-03-24T00:33:07.682Z,74.35
2019-03-24T00:34:07.667Z,75.52
2019-03-24T00:35:07.662Z,74.29
2019-03-24T00:36:07.687Z,74.49
2019-03-24T00:37:07.637Z,74.49
2019-03-24T00:38:07.632Z,74.39
2019-03-24T00:39:07.621Z,73.78
2019-03-24T00:40:07.612Z,73.68
2019-03-24T00:41:07.598Z,73.88
2019-03-24T00:42:07.596Z,74.19
2019-03-24T00:43:07.577Z,74.19
2019-03-24T00:44:07.564Z,74.29
2019-03-24T00:45:07.550Z,73.68
2019-03-24T00:46:07.540Z,73.40
2019-03-24T00:47:07.544Z,73.36
2019-03-24T00:48:07.523Z,73.30
2019-03-24T00:49:07.513Z,72.78
2019-03-24T00:50:07.503Z,72.78
2019-03-24T00:51:07.495Z,72.28
2019-03-24T00:52:07.505Z,72.38
2019-03-24T00:53:07.476Z,72.48
2019-03-24T00:54:07.458Z,72.38
2019-03-24T00:55:07.443Z,72.69
2019-03-24T00:56:07.435Z,72.48
2019-03-24T00:57:07.427Z,72.07
2019-03-24T00:58:07.441Z,71.97
2019-03-24T00:59:07.406Z,71.86
2019-03-24T01:00:07.396Z,71.56
2019-03-24T01:01:07.380Z,71.56
2019-03-24T01:02:07.371Z,71.25
2019-03-24T01:03:07.364Z,71.45
2019-03-24T01:04:07.356Z,70.84
2019-03-24T01:05:14.405Z,71.08
2019-03-24T01:06:07.326Z,70.47
2019-03-24T01:07:07.323Z,70.67
2019-03-24T01:08:07.306Z,70.57
2019-03-24T01:09:07.303Z,70.26
2019-03-24T01:10:07.294Z,70.06
2019-03-24T01:11:07.272Z,70.16
2019-03-24T01:12:07.262Z,69.44
2019-03-24T01:13:07.253Z,69.34
2019-03-24T01:14:07.261Z,69.27
2019-03-24T01:15:07.238Z,68.96
2019-03-24T01:16:07.220Z,69.13
2019-03-24T01:17:07.209Z,68.76
2019-03-24T01:18:07.199Z,68.76
2019-03-24T01:19:07.194Z,68.65
2019-03-24T01:20:07.200Z,68.93
2019-03-24T01:21:07.175Z,68.55
2019-03-24T01:22:07.155Z,68.24
2019-03-24T01:23:07.145Z,68.14
2019-03-24T01:24:07.137Z,68.04
2019-03-24T01:25:07.138Z,67.43
2019-03-24T01:26:07.111Z,67.11
2019-03-24T01:27:07.113Z,66.91
2019-03-24T01:28:07.100Z,66.91
2019-03-24T01:29:07.083Z,66.81
2019-03-24T01:30:07.197Z,66.71
2019-03-24T01:31:07.070Z,66.81
2019-03-24T01:32:07.046Z,66.09
2019-03-24T01:33:07.042Z,66.43
2019-03-24T01:34:07.032Z,66.09
2019-03-24T01:35:07.021Z,65.78
2019-03-24T01:36:07.014Z,65.99
2019-03-24T01:37:07.001Z,66.19
2019-03-24T01:38:06.984Z,65.99
2019-03-24T01:39:06.977Z,66.09
2019-03-24T01:40:06.965Z,66.09
2019-03-24T01:41:08.072Z,65.27
2019-03-24T01:42:06.947Z,65.48
2019-03-24T01:43:06.935Z,65.58
2019-03-24T01:44:06.923Z,65.37
2019-03-24T01:45:06.915Z,65.48
2019-03-24T01:46:06.937Z,65.07
2019-03-24T01:47:06.892Z,65.10
2019-03-24T01:48:06.881Z,65.00
2019-03-24T01:49:06.870Z,65.10
2019-03-24T01:50:06.863Z,65.20
2019-03-24T01:51:06.846Z,65.10
2019-03-24T01:52:13.913Z,65.07
2019-03-24T01:53:14.772Z,65.00
2019-03-24T01:54:15.789Z,65.10
2019-03-24T01:55:14.819Z,64.89
2019-03-24T01:56:06.789Z,64.69
2019-03-24T01:57:14.863Z,64.10
2019-03-24T01:58:06.773Z,63.90
2019-03-24T01:59:14.376Z,64.31
2019-03-24T02:00:15.399Z,64.31
2019-03-24T02:01:06.742Z,64.41
2019-03-24T02:02:06.731Z,64.31
2019-03-24T02:03:06.729Z,64.82
2019-03-24T02:04:06.711Z,64.61
2019-03-24T02:05:06.695Z,64.51
2019-03-24T02:06:06.689Z,64.41
2019-03-24T02:07:06.683Z,64.51
2019-03-24T02:08:06.675Z,64.51
2019-03-24T02:09:06.656Z,64.72
2019-03-24T02:10:06.669Z,64.72
2019-03-24T02:11:06.636Z,64.72
2019-03-24T02:13:23.697Z,64.72
2019-03-24T02:14:31.396Z,64.95
2019-03-24T02:15:32.415Z,64.51
2019-03-24T02:16:31.445Z,64.82
2019-03-24T02:17:31.467Z,65.06
2019-03-24T02:18:30.992Z,65.03
2019-03-24T02:19:31.503Z,65.47
2019-03-24T02:20:23.601Z,65.26
2019-03-24T02:21:23.586Z,65.12
2019-03-24T02:22:23.603Z,65.36
2019-03-24T02:23:23.574Z,65.36
2019-03-24T02:24:23.553Z,65.47
2019-03-24T02:25:23.545Z,65.06
2019-03-24T02:26:23.533Z,64.85
2019-03-24T02:27:23.526Z,65.57
2019-03-24T02:28:23.534Z,65.77
2019-03-24T02:29:23.499Z,66.08
2019-03-24T02:30:23.516Z,66.73
2019-03-24T02:31:23.486Z,66.31
2019-03-24T02:32:23.472Z,66.63
2019-03-24T02:33:23.512Z,66.42
2019-03-24T02:34:23.447Z,66.93
2019-03-24T02:35:23.443Z,67.03
2019-03-24T02:36:23.449Z,67.24
2019-03-24T02:37:23.422Z,67.24
2019-03-24T02:38:23.413Z,67.24
2019-03-24T02:39:23.443Z,67.24
2019-03-24T02:40:23.389Z,67.76
2019-03-24T02:41:23.377Z,67.76
2019-03-24T02:42:23.368Z,68.19
2019-03-24T02:43:23.357Z,68.10
2019-03-24T02:44:23.342Z,68.61
2019-03-24T02:45:23.343Z,68.19
2019-03-24T02:46:24.918Z,68.19
2019-03-24T02:47:23.312Z,68.10
2019-03-24T02:48:23.307Z,68.10
2019-03-24T02:49:23.293Z,68.10
2019-03-24T02:50:23.284Z,68.85
2019-03-24T02:51:23.291Z,68.71
2019-03-24T02:52:23.257Z,68.40
2019-03-24T02:53:23.263Z,68.43
2019-03-24T02:54:23.240Z,68.74
2019-03-24T02:55:23.229Z,68.74
2019-03-24T02:56:23.217Z,69.15
2019-03-24T02:57:23.223Z,68.95
2019-03-24T02:58:23.195Z,69.12
2019-03-24T02:59:23.222Z,68.85
2019-03-24T03:00:23.171Z,69.15
2019-03-24T03:01:23.165Z,69.15
2019-03-24T03:02:23.160Z,69.46
2019-03-24T03:03:23.159Z,69.87
2019-03-24T03:04:23.134Z,69.36
2019-03-24T03:05:23.117Z,69.80
2019-03-24T03:06:23.108Z,69.70
2019-03-24T03:07:23.098Z,69.60
2019-03-24T03:08:23.093Z,69.46
2019-03-24T03:09:23.106Z,69.49
2019-03-24T03:10:23.064Z,69.18
2019-03-24T03:11:23.070Z,69.70
2019-03-24T03:12:23.047Z,69.80
2019-03-24T03:13:23.037Z,69.90
2019-03-24T03:14:23.030Z,70.01
2019-03-24T03:15:23.009Z,70.11
2019-03-24T03:16:37.553Z,70.01
2019-03-24T03:17:23.993Z,69.90
2019-03-24T03:18:22.979Z,70.42
2019-03-24T03:19:23.000Z,70.56
2019-03-24T03:20:22.969Z,70.73
2019-03-24T03:21:22.945Z,70.97
2019-03-24T03:22:22.944Z,71.04
2019-03-24T03:23:22.925Z,70.86
2019-03-24T03:24:22.912Z,70.86
2019-03-24T03:25:22.938Z,70.86
2019-03-24T03:26:22.891Z,70.86
2019-03-24T03:27:22.884Z,70.97
2019-03-24T03:28:22.883Z,70.76
2019-03-24T03:29:22.862Z,70.76
2019-03-24T03:30:22.858Z,70.86
2019-03-24T03:31:22.850Z,71.07
2019-03-24T03:32:22.836Z,70.86
2019-03-24T03:33:22.893Z,70.76
2019-03-24T03:34:22.814Z,70.56
2019-03-24T03:35:22.814Z,70.14
2019-03-24T03:36:22.819Z,69.94
2019-03-24T03:37:22.791Z,70.35
2019-03-24T03:38:22.763Z,70.04
2019-03-24T03:39:22.779Z,70.25
2019-03-24T03:40:22.741Z,70.04
2019-03-24T03:41:22.743Z,69.97
2019-03-24T03:42:22.764Z,70.04
2019-03-24T03:43:22.722Z,70.04
2019-03-24T03:44:22.701Z,69.84
2019-03-24T03:45:22.687Z,70.04
2019-03-24T03:46:22.691Z,70.18
2019-03-24T03:47:22.670Z,69.97
2019-03-24T03:48:22.666Z,70.69
2019-03-24T03:49:22.648Z,70.69
2019-03-24T03:50:22.635Z,70.38
2019-03-24T03:51:22.634Z,70.28
2019-03-24T03:52:22.630Z,70.69
2019-03-24T03:53:22.605Z,70.28
2019-03-24T03:54:22.600Z,70.48
2019-03-24T03:55:22.580Z,70.18
2019-03-24T03:56:22.583Z,70.07
2019-03-24T03:57:22.561Z,70.07
2019-03-24T03:58:22.550Z,70.38
2019-03-24T03:59:22.548Z,70.38
2019-03-24T04:00:22.541Z,70.28
2019-03-24T04:01:22.519Z,70.18
2019-03-24T04:02:22.519Z,70.18
2019-03-24T04:03:22.513Z,70.62
2019-03-24T04:04:22.504Z,70.79
2019-03-24T04:05:22.480Z,70.62
2019-03-24T04:06:22.468Z,70.90
2019-03-24T04:07:22.454Z,70.62
2019-03-24T04:08:22.443Z,70.62
2019-03-24T04:09:22.439Z,70.83
2019-03-24T04:10:22.431Z,70.72
2019-03-24T04:11:22.413Z,70.62
2019-03-24T04:12:22.409Z,70.62
2019-03-24T04:13:22.397Z,70.42
2019-03-24T04:14:22.393Z,70.42
2019-03-24T04:15:22.373Z,70.31
2019-03-24T04:16:22.374Z,70.52
2019-03-24T04:17:22.358Z,70.62
2019-03-24T04:18:22.355Z,70.83
2019-03-24T04:19:22.333Z,70.52
2019-03-24T04:20:22.321Z,70.93
2019-03-24T04:21:22.326Z,70.96
2019-03-24T04:22:22.303Z,70.86
2019-03-24T04:23:22.293Z,70.86
2019-03-24T04:24:22.304Z,70.83
2019-03-24T04:25:22.272Z,70.72
2019-03-24T04:26:22.260Z,71.27
2019-03-24T04:27:22.266Z,71.17
2019-03-24T04:28:22.235Z,70.86
2019-03-24T04:29:22.232Z,70.96
2019-03-24T04:30:22.244Z,70.86
2019-03-24T04:31:22.202Z,71.37
2019-03-24T04:32:22.202Z,71.27
2019-03-24T04:33:22.181Z,71.78
2019-03-24T04:34:22.170Z,71.89
2019-03-24T04:35:22.160Z,71.92
2019-03-24T04:36:22.167Z,72.13
2019-03-24T04:37:22.150Z,71.92
2019-03-24T04:38:22.133Z,72.03
2019-03-24T04:39:22.118Z,71.82
2019-03-24T04:40:22.112Z,71.92
2019-03-24T04:41:22.142Z,72.03
2019-03-24T04:42:22.090Z,71.82
2019-03-24T04:43:22.080Z,72.13
2019-03-24T04:44:22.071Z,72.06
2019-03-24T04:45:22.054Z,72.33
2019-03-24T04:46:22.049Z,72.44
2019-03-24T04:47:22.049Z,72.33
2019-03-24T04:48:22.025Z,72.33
2019-03-24T04:49:22.012Z,72.23
2019-03-24T04:50:22.000Z,72.33
2019-03-24T04:51:21.998Z,72.33
2019-03-24T04:52:21.989Z,72.44
2019-03-24T04:53:21.983Z,72.13
2019-03-24T04:54:21.958Z,72.03
2019-03-24T04:55:21.960Z,72.44
2019-03-24T04:56:21.938Z,72.51
2019-03-24T04:57:21.927Z,72.20
2019-03-24T04:58:21.915Z,72.09
2019-03-24T04:59:21.914Z,72.20
2019-03-24T05:00:21.896Z,72.30
2019-03-24T05:01:21.924Z,71.99
2019-03-24T05:02:21.875Z,72.41
2019-03-24T05:03:21.873Z,72.41
2019-03-24T05:04:21.860Z,71.89
2019-03-24T05:05:21.851Z,71.78
2019-03-24T05:06:21.831Z,72.09
2019-03-24T05:07:21.862Z,71.99
2019-03-24T05:08:21.816Z,72.09
2019-03-24T05:09:21.810Z,71.89
2019-03-24T05:10:21.808Z,72.16
2019-03-24T05:11:21.780Z,72.06
2019-03-24T05:12:21.769Z,72.16
2019-03-24T05:13:21.775Z,72.37
2019-03-24T05:14:21.753Z,72.47
2019-03-24T05:15:21.745Z,72.30
2019-03-24T05:16:21.738Z,71.86
2019-03-24T05:17:26.944Z,71.48
2019-03-24T05:18:22.712Z,71.48
2019-03-24T05:19:21.701Z,71.44
2019-03-24T05:20:21.688Z,71.65
2019-03-24T05:21:21.711Z,71.27
2019-03-24T05:22:21.675Z,71.03
2019-03-24T05:23:21.667Z,70.62
2019-03-24T05:24:21.643Z,70.93
2019-03-24T05:25:23.680Z,70.93
2019-03-24T05:26:21.628Z,70.72
2019-03-24T05:27:21.633Z,70.62
2019-03-24T05:28:21.615Z,71.14
2019-03-24T05:29:21.592Z,71.24
2019-03-24T05:30:21.583Z,71.14
2019-03-24T05:31:21.576Z,71.06
2019-03-24T05:32:21.565Z,70.76
2019-03-24T05:33:21.569Z,71.65
2019-03-24T05:34:21.543Z,71.06
2019-03-24T05:35:21.527Z,71.27
2019-03-24T05:36:21.519Z,71.06
2019-03-24T05:37:21.511Z,71.37
2019-03-24T05:38:21.505Z,71.34
2019-03-24T05:39:21.494Z,71.14
2019-03-24T05:40:21.478Z,71.03
2019-03-24T05:41:21.465Z,70.93
2019-03-24T05:42:21.458Z,70.93
2019-03-24T05:43:21.458Z,70.83
2019-03-24T05:44:21.441Z,70.93
2019-03-24T05:45:21.430Z,71.17
2019-03-24T05:46:21.415Z,70.83
2019-03-24T05:47:21.405Z,70.93
2019-03-24T05:48:21.395Z,71.14
2019-03-24T05:49:21.422Z,71.03
2019-03-24T05:50:21.381Z,71.14
2019-03-24T05:51:21.361Z,70.93
2019-03-24T05:52:21.354Z,70.72
2019-03-24T05:53:21.336Z,70.93
2019-03-24T05:54:21.331Z,70.83
2019-03-24T05:55:21.355Z,71.14
2019-03-24T05:56:21.305Z,71.14
2019-03-24T05:57:21.305Z,70.62
2019-03-24T05:58:21.282Z,70.83
2019-03-24T05:59:21.277Z,70.72
2019-03-24T06:00:21.260Z,70.62
2019-03-24T06:01:21.264Z,70.59
2019-03-24T06:02:21.243Z,70.59
2019-03-24T06:03:21.235Z,70.59
2019-03-24T06:04:21.223Z,70.48
2019-03-24T06:05:21.242Z,70.38
2019-03-24T06:06:21.196Z,69.97
2019-03-24T06:07:21.194Z,69.76
2019-03-24T06:08:21.185Z,69.59
2019-03-24T06:09:21.168Z,69.87
2019-03-24T06:10:21.158Z,70.07
2019-03-24T06:11:21.158Z,70.18
2019-03-24T06:12:21.140Z,69.97
2019-03-24T06:13:21.126Z,69.46
2019-03-24T06:14:21.112Z,69.56
2019-03-24T06:15:21.104Z,69.56
2019-03-24T06:16:21.098Z,69.66
2019-03-24T06:17:21.084Z,69.35
2019-03-24T06:18:21.073Z,69.66
2019-03-24T06:19:21.071Z,69.76
2019-03-24T06:20:21.051Z,69.56
2019-03-24T06:21:21.044Z,69.87
2019-03-24T06:22:21.030Z,69.46
2019-03-24T06:23:21.014Z,69.76
2019-03-24T06:24:21.012Z,69.35
2019-03-24T06:25:21.009Z,69.87
2019-03-24T06:26:21.017Z,71.51
2019-03-24T06:27:20.990Z,73.16
2019-03-24T06:28:20.962Z,75.70
2019-03-24T06:29:20.956Z,75.59
2019-03-24T06:30:20.952Z,72.81
2019-03-24T06:31:20.929Z,71.14
2019-03-24T06:32:20.963Z,69.49
2019-03-24T06:33:20.908Z,68.98
2019-03-24T06:34:20.903Z,68.64
2019-03-24T06:35:20.894Z,69.15
2019-03-24T06:36:20.876Z,68.43
2019-03-24T06:37:20.868Z,67.20
2019-03-24T06:38:20.865Z,67.30
2019-03-24T06:39:20.845Z,66.76
2019-03-24T06:40:20.838Z,66.66
2019-03-24T06:41:20.822Z,66.93
2019-03-24T06:42:20.818Z,66.42
2019-03-24T06:43:20.839Z,65.29
2019-03-24T06:44:20.797Z,65.67
2019-03-24T06:45:28.326Z,65.12
2019-03-24T06:46:21.777Z,64.72
2019-03-24T06:47:20.765Z,63.90
2019-03-24T06:48:20.753Z,63.07
2019-03-24T06:49:20.747Z,62.87
2019-03-24T06:50:20.734Z,62.84
2019-03-24T06:51:20.721Z,62.74
2019-03-24T06:52:20.713Z,62.61
2019-03-24T06:53:20.704Z,62.19
2019-03-24T06:54:20.695Z,61.66
2019-03-24T06:55:20.679Z,63.47
2019-03-24T06:56:20.665Z,62.11
2019-03-24T06:57:20.652Z,61.29
2019-03-24T06:58:20.641Z,60.06
2019-03-24T06:59:20.643Z,59.42
2019-03-24T07:00:20.650Z,59.32
2019-03-24T07:01:20.660Z,59.01
2019-03-24T07:02:20.604Z,59.01
2019-03-24T07:03:20.592Z,57.86
2019-03-24T07:04:20.578Z,56.84
2019-03-24T07:05:28.557Z,57.22
2019-03-24T07:06:20.557Z,56.74
2019-03-24T07:07:20.560Z,56.74
2019-03-24T07:08:20.538Z,56.61
2019-03-24T07:09:20.527Z,56.68
2019-03-24T07:10:20.513Z,56.38
2019-03-24T07:11:20.510Z,56.17
2019-03-24T07:12:20.504Z,55.84
2019-03-24T07:13:20.490Z,54.92
2019-03-24T07:14:20.473Z,53.88
2019-03-24T07:15:20.494Z,54.49
2019-03-24T07:16:20.454Z,54.16
2019-03-24T07:17:20.438Z,52.53
2019-03-24T07:18:20.433Z,51.99
2019-03-24T07:19:20.420Z,51.48
2019-03-24T07:20:20.407Z,52.29
2019-03-24T07:21:20.408Z,51.86
2019-03-24T07:22:20.387Z,50.92
2019-03-24T07:23:20.377Z,51.43
2019-03-24T07:24:20.361Z,50.72
2019-03-24T07:25:20.350Z,51.41
2019-03-24T07:26:20.354Z,50.90
2019-03-24T07:27:20.333Z,50.92
2019-03-24T07:28:20.321Z,52.66
2019-03-24T07:29:20.311Z,53.78
2019-03-24T07:30:20.306Z,54.18
2019-03-24T07:31:20.300Z,52.78
2019-03-24T07:32:20.281Z,51.66
2019-03-24T07:33:20.314Z,51.38
2019-03-24T07:34:20.261Z,52.01
2019-03-24T07:35:20.247Z,52.32
2019-03-24T07:36:20.238Z,52.42
2019-03-24T07:37:20.222Z,54.18
2019-03-24T07:38:20.213Z,53.98
2019-03-24T07:39:20.217Z,53.57
2019-03-24T07:40:20.193Z,53.14
2019-03-24T07:41:20.181Z,53.44
2019-03-24T07:42:20.173Z,53.06
2019-03-24T07:43:20.156Z,53.44
2019-03-24T07:44:20.203Z,53.27
2019-03-24T07:45:20.147Z,53.03
2019-03-24T07:46:20.129Z,52.83
2019-03-24T07:47:20.117Z,52.04
2019-03-24T07:48:20.107Z,52.53
2019-03-24T07:49:20.103Z,52.32
2019-03-24T07:50:20.092Z,52.40
2019-03-24T07:51:20.074Z,52.78
2019-03-24T07:52:20.092Z,51.15
2019-03-24T07:53:20.055Z,50.67
2019-03-24T07:54:20.044Z,50.24
2019-03-24T07:55:20.033Z,49.22
2019-03-24T07:56:20.021Z,48.28
2019-03-24T07:57:20.013Z,46.94
2019-03-24T07:58:20.010Z,47.37
2019-03-24T07:59:19.991Z,47.60
2019-03-24T08:00:19.977Z,48.33
2019-03-24T08:01:19.966Z,49.02
2019-03-24T08:02:19.973Z,48.94
2019-03-24T08:03:19.960Z,48.72
2019-03-24T08:04:19.940Z,48.21
2019-03-24T08:05:19.919Z,48.03
2019-03-24T08:06:19.958Z,48.74
2019-03-24T08:07:19.899Z,49.35
2019-03-24T08:08:19.888Z,51.39
2019-03-24T08:09:19.883Z,49.71
2019-03-24T08:10:19.883Z,49.69
2019-03-24T08:11:19.866Z,47.30
2019-03-24T08:12:19.856Z,44.93
2019-03-24T08:13:19.839Z,44.90
2019-03-24T08:14:19.823Z,44.78
2019-03-24T08:15:19.818Z,44.87
2019-03-24T08:16:19.804Z,43.83
2019-03-24T08:17:19.807Z,42.68
2019-03-24T08:18:29.460Z,41.56
2019-03-24T08:19:20.789Z,41.87
2019-03-24T08:20:19.758Z,42.21
2019-03-24T08:21:19.752Z,43.37
2019-03-24T08:22:19.756Z,43.81
2019-03-24T08:23:19.726Z,44.65
2019-03-24T08:24:19.721Z,44.07
2019-03-24T08:25:19.706Z,44.70
2019-03-24T08:26:19.699Z,44.89
2019-03-24T08:27:19.683Z,44.18
2019-03-24T08:28:19.690Z,43.87
2019-03-24T08:29:19.702Z,45.01
2019-03-24T08:30:19.652Z,44.81
2019-03-24T08:31:19.649Z,46.22
2019-03-24T08:32:19.635Z,44.30
2019-03-24T08:33:19.625Z,43.98
2019-03-24T08:34:19.612Z,43.65
2019-03-24T08:35:19.609Z,42.23
2019-03-24T08:36:19.589Z,43.16
2019-03-24T08:37:19.584Z,43.57
2019-03-24T08:38:19.575Z,43.98
2019-03-24T08:39:19.563Z,42.96
2019-03-24T08:40:19.566Z,43.77
2019-03-24T08:41:19.534Z,44.07
2019-03-24T08:42:19.525Z,44.07
2019-03-24T08:43:19.545Z,43.26
2019-03-24T08:44:19.502Z,43.95
2019-03-24T08:45:19.528Z,43.98
2019-03-24T08:46:19.487Z,43.55
2019-03-24T08:47:19.477Z,43.23
2019-03-24T08:48:19.459Z,43.95
2019-03-24T08:49:19.457Z,43.85
2019-03-24T08:50:19.444Z,44.26
2019-03-24T08:51:19.444Z,44.26
2019-03-24T08:52:19.420Z,44.07
2019-03-24T08:53:19.411Z,43.77
2019-03-24T08:54:19.400Z,43.98
2019-03-24T08:55:19.385Z,44.60
2019-03-24T08:56:19.389Z,43.89
2019-03-24T08:57:19.371Z,44.81
2019-03-24T08:58:19.360Z,44.20
2019-03-24T08:59:19.342Z,43.99
2019-03-24T09:00:29.877Z,44.93
2019-03-24T09:01:20.330Z,44.54
2019-03-24T09:02:19.311Z,44.22
2019-03-24T09:03:19.305Z,45.23
2019-03-24T09:04:19.303Z,43.89
2019-03-24T09:05:19.283Z,44.58
2019-03-24T09:06:19.276Z,43.59
2019-03-24T09:07:19.264Z,43.89
2019-03-24T09:08:19.250Z,44.15
2019-03-24T09:09:19.246Z,43.41
2019-03-24T09:10:19.229Z,42.25
2019-03-24T09:11:19.215Z,41.50
2019-03-24T09:12:19.212Z,43.28
2019-03-24T09:13:19.199Z,39.21
2019-03-24T09:14:19.182Z,37.56
2019-03-24T09:15:19.179Z,40.08
2019-03-24T09:16:19.169Z,39.43
2019-03-24T09:17:19.188Z,38.27
2019-03-24T09:18:19.151Z,36.92
2019-03-24T09:19:19.134Z,40.16
2019-03-24T09:20:19.124Z,39.07
2019-03-24T09:21:19.649Z,38.37
2019-03-24T09:22:19.112Z,38.48
2019-03-24T09:23:19.093Z,39.31
2019-03-24T09:24:19.073Z,38.30
2019-03-24T09:25:19.107Z,38.93
2019-03-24T09:26:19.075Z,38.06
2019-03-24T09:27:19.050Z,38.54
2019-03-24T09:28:19.042Z,37.11
2019-03-24T09:29:19.031Z,37.90
2019-03-24T09:30:19.018Z,38.12
2019-03-24T09:31:18.999Z,37.63
2019-03-24T09:32:18.998Z,37.43
2019-03-24T09:33:18.987Z,36.82
2019-03-24T09:34:18.992Z,38.71
2019-03-24T09:35:18.961Z,38.40
2019-03-24T09:36:18.952Z,39.53
2019-03-24T09:37:18.936Z,38.44
2019-03-24T09:38:18.933Z,38.96
2019-03-24T09:39:18.923Z,39.17
2019-03-24T09:40:18.918Z,36.30
2019-03-24T09:41:18.897Z,36.82
2019-03-24T09:42:18.885Z,37.23
2019-03-24T09:43:18.883Z,37.93
2019-03-24T09:44:18.864Z,38.37
2019-03-24T09:45:18.868Z,39.37
2019-03-24T09:46:18.855Z,38.95
2019-03-24T09:47:18.836Z,38.75
2019-03-24T09:48:18.821Z,37.62
2019-03-24T09:49:18.814Z,36.61
2019-03-24T09:50:18.838Z,37.19
2019-03-24T09:51:21.120Z,37.56
2019-03-24T09:52:18.785Z,36.52
2019-03-24T09:53:18.773Z,36.40
2019-03-24T09:54:18.758Z,34.78
2019-03-24T09:55:18.750Z,34.06
2019-03-24T09:56:18.751Z,34.64
2019-03-24T09:57:18.726Z,34.61
2019-03-24T09:58:18.718Z,34.59
2019-03-24T09:59:18.761Z,33.89
2019-03-24T10:00:18.729Z,33.28
2019-03-24T10:01:18.710Z,33.28
2019-03-24T10:02:18.679Z,34.06
2019-03-24T10:03:18.662Z,31.44
2019-03-24T10:04:18.656Z,32.06
2019-03-24T10:05:18.643Z,31.46
2019-03-24T10:06:18.636Z,30.55
2019-03-24T10:07:18.638Z,32.04
2019-03-24T10:08:18.613Z,33.34
2019-03-24T10:09:18.802Z,32.64
2019-03-24T10:10:18.593Z,32.12
2019-03-24T10:11:18.593Z,31.52
2019-03-24T10:12:18.583Z,31.49
2019-03-24T10:13:18.556Z,31.88
2019-03-24T10:14:18.546Z,31.61
2019-03-24T10:15:18.541Z,31.65
2019-03-24T10:16:18.530Z,32.09
2019-03-24T10:17:18.533Z,32.81
2019-03-24T10:18:18.503Z,31.62
2019-03-24T10:19:18.493Z,32.23
2019-03-24T10:20:18.489Z,33.04
2019-03-24T10:21:18.497Z,33.34
2019-03-24T10:22:18.483Z,32.93
2019-03-24T10:23:18.456Z,32.73
2019-03-24T10:24:18.445Z,36.32
2019-03-24T10:25:18.434Z,34.81
2019-03-24T10:26:18.427Z,35.31
2019-03-24T10:27:18.413Z,34.51
2019-03-24T10:28:18.440Z,36.43
2019-03-24T10:29:18.391Z,40.37
2019-03-24T10:30:18.376Z,37.26
2019-03-24T10:31:18.370Z,37.76
2019-03-24T10:32:18.372Z,37.04
2019-03-24T10:33:18.354Z,38.14
2019-03-24T10:34:18.349Z,36.48
2019-03-24T10:35:18.323Z,41.49
2019-03-24T10:36:18.313Z,35.18
2019-03-24T10:37:18.355Z,35.80
2019-03-24T10:38:18.294Z,32.79
2019-03-24T10:39:18.283Z,31.90
2019-03-24T10:40:28.123Z,37.82
2019-03-24T10:41:19.263Z,36.33
2019-03-24T10:42:18.255Z,34.21
2019-03-24T10:43:18.259Z,35.82
2019-03-24T10:44:18.228Z,36.80
2019-03-24T10:45:18.222Z,37.18
2019-03-24T10:46:18.212Z,31.88
2019-03-24T10:47:18.196Z,30.81
2019-03-24T10:48:18.236Z,33.71
2019-03-24T10:49:24.763Z,31.87
2019-03-24T10:50:19.169Z,38.17
2019-03-24T10:51:18.161Z,39.15
2019-03-24T10:52:18.149Z,35.03
2019-03-24T10:53:18.144Z,34.30
2019-03-24T10:54:18.137Z,31.96
2019-03-24T10:55:18.117Z,30.27
2019-03-24T10:56:18.103Z,31.87
2019-03-24T10:57:18.098Z,32.03
2019-03-24T10:58:18.082Z,28.94
2019-03-24T10:59:18.103Z,31.98
2019-03-24T11:00:18.060Z,33.03
2019-03-24T11:01:18.050Z,29.51
2019-03-24T11:02:18.056Z,29.39
2019-03-24T11:03:18.033Z,33.37
2019-03-24T11:04:18.020Z,28.09
2019-03-24T11:05:18.021Z,26.20
2019-03-24T11:06:17.998Z,28.87
2019-03-24T11:07:17.992Z,31.64
2019-03-24T11:08:18.074Z,34.23
2019-03-24T11:09:17.987Z,27.95
2019-03-24T11:10:17.999Z,28.39
2019-03-24T11:11:17.953Z,28.76
2019-03-24T11:12:17.939Z,27.78
2019-03-24T11:13:17.930Z,28.46
2019-03-24T11:14:17.918Z,31.13
2019-03-24T11:15:17.910Z,28.86
2019-03-24T11:16:17.906Z,28.69
2019-03-24T11:17:17.889Z,27.83
2019-03-24T11:18:17.884Z,29.25
2019-03-24T11:19:17.907Z,34.16
2019-03-24T11:20:17.856Z,29.38
2019-03-24T11:21:17.862Z,32.05
2019-03-24T11:22:17.845Z,28.63
2019-03-24T11:23:17.826Z,27.50
2019-03-24T11:24:17.814Z,30.28
2019-03-24T11:25:17.808Z,25.89
2019-03-24T11:26:17.814Z,28.77
2019-03-24T11:27:17.789Z,26.50
2019-03-24T11:28:19.267Z,31.07
2019-03-24T11:29:17.763Z,28.58
2019-03-24T11:30:17.757Z,28.57
2019-03-24T11:31:17.790Z,24.66
2019-03-24T11:32:17.737Z,25.24
2019-03-24T11:33:17.730Z,27.12
2019-03-24T11:34:17.718Z,25.66
2019-03-24T11:35:17.767Z,27.75
2019-03-24T11:36:17.700Z,27.29
2019-03-24T11:37:17.706Z,29.10
2019-03-24T11:38:17.674Z,27.55
2019-03-24T11:39:17.672Z,22.75
2019-03-24T11:40:17.657Z,27.64
2019-03-24T11:41:17.643Z,31.07
2019-03-24T11:42:17.640Z,28.27
2019-03-24T11:43:17.695Z,28.98
2019-03-24T11:44:17.614Z,32.21
2019-03-24T11:45:17.601Z,29.62
2019-03-24T11:46:17.591Z,27.64
2019-03-24T11:47:26.258Z,26.04
2019-03-24T11:48:18.582Z,28.75
2019-03-24T11:49:17.648Z,28.84
2019-03-24T11:50:17.549Z,27.83
2019-03-24T11:51:17.539Z,27.45
2019-03-24T11:52:17.537Z,27.46
2019-03-24T11:53:17.516Z,28.29
2019-03-24T11:54:17.514Z,32.64
2019-03-24T11:56:26.280Z,36.08
2019-03-24T11:57:26.265Z,32.24
2019-03-24T11:58:26.250Z,37.08
2019-03-24T11:59:26.234Z,36.07
2019-03-24T12:00:26.222Z,32.95
2019-03-24T12:01:26.218Z,33.23
2019-03-24T12:02:26.211Z,32.73
2019-03-24T12:03:26.203Z,35.43
2019-03-24T12:04:26.190Z,31.20
2019-03-24T12:05:26.177Z,30.47
2019-03-24T12:06:26.157Z,30.07
2019-03-24T12:07:26.151Z,29.68
2019-03-24T12:08:26.146Z,32.20
2019-03-24T12:09:26.127Z,30.61
2019-03-24T12:10:26.132Z,29.22
2019-03-24T12:11:26.126Z,33.55
2019-03-24T12:12:26.103Z,31.14
2019-03-24T12:13:26.386Z,29.72
2019-03-24T12:14:26.077Z,30.54
2019-03-24T12:15:26.076Z,30.84
2019-03-24T12:16:26.057Z,29.62
2019-03-24T12:17:26.042Z,29.62
2019-03-24T12:18:26.077Z,33.02
2019-03-24T12:19:26.025Z,30.11
2019-03-24T12:20:26.017Z,30.73
2019-03-24T12:21:25.998Z,31.14
2019-03-24T12:22:25.987Z,29.97
2019-03-24T12:23:25.980Z,28.97
2019-03-24T12:24:25.979Z,31.12
2019-03-24T12:25:26.007Z,32.44
2019-03-24T12:26:25.943Z,32.75
2019-03-24T12:27:25.941Z,34.04
2019-03-24T12:28:25.962Z,32.83
2019-03-24T12:29:25.929Z,30.60
2019-03-24T12:30:25.920Z,29.50
2019-03-24T12:31:25.906Z,32.43
2019-03-24T12:32:25.883Z,30.99
2019-03-24T12:33:25.868Z,28.86
2019-03-24T12:34:25.892Z,29.29
2019-03-24T12:35:25.849Z,33.28
2019-03-24T12:36:25.841Z,32.45
2019-03-24T12:37:25.824Z,30.34
2019-03-24T12:38:25.818Z,30.64
2019-03-24T12:39:25.801Z,32.23
2019-03-24T12:40:25.906Z,31.62
2019-03-24T12:41:25.780Z,29.19
2019-03-24T12:42:25.780Z,28.46
2019-03-24T12:43:25.778Z,28.16
2019-03-24T12:44:25.747Z,27.36
2019-03-24T12:45:25.778Z,27.86
2019-03-24T12:46:25.733Z,27.85
2019-03-24T12:47:25.719Z,27.83
2019-03-24T12:48:25.785Z,26.53
2019-03-24T12:49:25.701Z,26.06
2019-03-24T12:50:31.488Z,26.97
2019-03-24T12:51:26.682Z,28.28
2019-03-24T12:52:25.669Z,26.57
2019-03-24T12:53:25.652Z,26.18
2019-03-24T12:54:25.716Z,25.85